sensor_id;sensor_type;location;lat;lon;timestamp;P1;durP1;ratioP1;P2;durP2;ratioP2
69937;SDS011;57248;47.320;15.998;2023-06-14T00:00:17;5.07;;;2.33;;
69937;SDS011;57248;47.320;15.998;2023-06-14T00:02:49;5.10;;;2.03;;
69937;SDS011;57248;47.320;15.998;2023-06-14T00:05:21;6.60;;;2.08;;
69937;SDS011;57248;47.320;15.998;2023-06-14T00:07:55;7.03;;;1.90;;
69937;SDS011;57248;47.320;15.998;2023-06-14T00:10:27;4.85;;;2.00;;
69937;SDS011;57248;47.320;15.998;2023-06-14T00:13:02;4.53;;;2.25;;
69937;SDS011;57248;47.320;15.998;2023-06-14T00:15:35;4.93;;;2.03;;
69937;SDS011;57248;47.320;15.998;2023-06-14T00:18:01;5.70;;;2.20;;
69937;SDS011;57248;47.320;15.998;2023-06-14T00:20:34;5.30;;;2.25;;
69937;SDS011;57248;47.320;15.998;2023-06-14T00:23:06;5.30;;;2.40;;
69937;SDS011;57248;47.320;15.998;2023-06-14T00:25:38;4.90;;;2.25;;
69937;SDS011;57248;47.320;15.998;2023-06-14T00:28:10;4.88;;;2.20;;
69937;SDS011;57248;47.320;15.998;2023-06-14T00:30:35;4.47;;;2.17;;
69937;SDS011;57248;47.320;15.998;2023-06-14T00:33:07;7.55;;;2.58;;
69937;SDS011;57248;47.320;15.998;2023-06-14T00:35:32;5.80;;;2.70;;
69937;SDS011;57248;47.320;15.998;2023-06-14T00:38:04;4.82;;;2.20;;
69937;SDS011;57248;47.320;15.998;2023-06-14T00:40:36;6.93;;;2.65;;
69937;SDS011;57248;47.320;15.998;2023-06-14T00:43:12;5.80;;;2.42;;
69937;SDS011;57248;47.320;15.998;2023-06-14T00:45:37;7.23;;;2.60;;
69937;SDS011;57248;47.320;15.998;2023-06-14T00:48:09;6.55;;;2.40;;
69937;SDS011;57248;47.320;15.998;2023-06-14T00:50:56;6.15;;;2.90;;
69937;SDS011;57248;47.320;15.998;2023-06-14T00:53:29;5.03;;;2.28;;
69937;SDS011;57248;47.320;15.998;2023-06-14T00:56:03;5.47;;;2.30;;
69937;SDS011;57248;47.320;15.998;2023-06-14T00:58:35;6.25;;;2.67;;
69937;SDS011;57248;47.320;15.998;2023-06-14T01:01:00;6.00;;;2.23;;
69937;SDS011;57248;47.320;15.998;2023-06-14T01:03:33;5.07;;;2.40;;
69937;SDS011;57248;47.320;15.998;2023-06-14T01:06:23;5.28;;;2.58;;
69937;SDS011;57248;47.320;15.998;2023-06-14T01:09:18;6.00;;;2.38;;
69937;SDS011;57248;47.320;15.998;2023-06-14T01:11:54;6.20;;;2.60;;
69937;SDS011;57248;47.320;15.998;2023-06-14T01:14:32;5.97;;;2.50;;
69937;SDS011;57248;47.320;15.998;2023-06-14T01:17:06;5.57;;;2.30;;
69937;SDS011;57248;47.320;15.998;2023-06-14T01:19:47;6.88;;;2.55;;
69937;SDS011;57248;47.320;15.998;2023-06-14T01:22:19;7.68;;;2.60;;
69937;SDS011;57248;47.320;15.998;2023-06-14T01:24:54;5.35;;;2.22;;
69937;SDS011;57248;47.320;15.998;2023-06-14T01:27:29;4.70;;;2.20;;
69937;SDS011;57248;47.320;15.998;2023-06-14T01:30:01;5.10;;;2.33;;
69937;SDS011;57248;47.320;15.998;2023-06-14T01:32:34;5.95;;;2.63;;
69937;SDS011;57248;47.320;15.998;2023-06-14T01:35:00;6.65;;;2.65;;
69937;SDS011;57248;47.320;15.998;2023-06-14T01:37:32;6.13;;;2.60;;
69937;SDS011;57248;47.320;15.998;2023-06-14T01:40:05;5.30;;;2.50;;
69937;SDS011;57248;47.320;15.998;2023-06-14T01:42:39;8.48;;;2.70;;
69937;SDS011;57248;47.320;15.998;2023-06-14T01:45:11;8.23;;;2.95;;
69937;SDS011;57248;47.320;15.998;2023-06-14T01:47:43;6.40;;;2.35;;
69937;SDS011;57248;47.320;15.998;2023-06-14T01:50:16;5.78;;;2.80;;
69937;SDS011;57248;47.320;15.998;2023-06-14T01:52:50;5.43;;;2.40;;
69937;SDS011;57248;47.320;15.998;2023-06-14T01:55:22;5.68;;;2.60;;
69937;SDS011;57248;47.320;15.998;2023-06-14T01:57:56;7.68;;;2.35;;
69937;SDS011;57248;47.320;15.998;2023-06-14T02:00:28;4.88;;;2.33;;
69937;SDS011;57248;47.320;15.998;2023-06-14T02:03:00;5.65;;;2.42;;
69937;SDS011;57248;47.320;15.998;2023-06-14T02:05:32;6.77;;;2.40;;
69937;SDS011;57248;47.320;15.998;2023-06-14T02:08:06;4.32;;;2.10;;
69937;SDS011;57248;47.320;15.998;2023-06-14T02:10:39;5.05;;;2.30;;
69937;SDS011;57248;47.320;15.998;2023-06-14T02:13:11;5.38;;;2.30;;
69937;SDS011;57248;47.320;15.998;2023-06-14T02:15:43;7.13;;;2.55;;
69937;SDS011;57248;47.320;15.998;2023-06-14T02:18:16;5.10;;;2.20;;
69937;SDS011;57248;47.320;15.998;2023-06-14T02:20:42;5.45;;;2.40;;
69937;SDS011;57248;47.320;15.998;2023-06-14T02:23:16;5.93;;;2.40;;
69937;SDS011;57248;47.320;15.998;2023-06-14T02:25:50;7.90;;;3.00;;
69937;SDS011;57248;47.320;15.998;2023-06-14T02:28:15;6.30;;;2.43;;
69937;SDS011;57248;47.320;15.998;2023-06-14T02:30:48;5.30;;;2.53;;
69937;SDS011;57248;47.320;15.998;2023-06-14T02:33:22;6.88;;;2.40;;
69937;SDS011;57248;47.320;15.998;2023-06-14T02:35:54;6.30;;;3.00;;
69937;SDS011;57248;47.320;15.998;2023-06-14T02:38:28;5.32;;;2.60;;
69937;SDS011;57248;47.320;15.998;2023-06-14T02:41:00;5.27;;;2.60;;
69937;SDS011;57248;47.320;15.998;2023-06-14T02:43:33;6.30;;;2.75;;
69937;SDS011;57248;47.320;15.998;2023-06-14T02:46:05;6.40;;;3.05;;
69937;SDS011;57248;47.320;15.998;2023-06-14T02:48:38;5.07;;;2.33;;
69937;SDS011;57248;47.320;15.998;2023-06-14T02:51:24;6.18;;;2.40;;
69937;SDS011;57248;47.320;15.998;2023-06-14T02:53:56;6.50;;;2.80;;
69937;SDS011;57248;47.320;15.998;2023-06-14T02:56:28;6.38;;;2.78;;
69937;SDS011;57248;47.320;15.998;2023-06-14T02:59:01;6.18;;;2.53;;
69937;SDS011;57248;47.320;15.998;2023-06-14T03:01:35;5.22;;;2.38;;
69937;SDS011;57248;47.320;15.998;2023-06-14T03:04:10;6.45;;;2.65;;
69937;SDS011;57248;47.320;15.998;2023-06-14T03:06:42;6.10;;;2.57;;
69937;SDS011;57248;47.320;15.998;2023-06-14T03:09:18;6.65;;;2.63;;
69937;SDS011;57248;47.320;15.998;2023-06-14T03:11:51;6.38;;;2.65;;
69937;SDS011;57248;47.320;15.998;2023-06-14T03:14:23;6.97;;;2.50;;
69937;SDS011;57248;47.320;15.998;2023-06-14T03:16:55;6.32;;;2.53;;
69937;SDS011;57248;47.320;15.998;2023-06-14T03:19:29;8.03;;;2.50;;
69937;SDS011;57248;47.320;15.998;2023-06-14T03:21:55;6.30;;;2.90;;
69937;SDS011;57248;47.320;15.998;2023-06-14T03:24:31;6.18;;;2.90;;
69937;SDS011;57248;47.320;15.998;2023-06-14T03:27:11;6.30;;;2.67;;
69937;SDS011;57248;47.320;15.998;2023-06-14T03:29:45;5.88;;;2.80;;
69937;SDS011;57248;47.320;15.998;2023-06-14T03:32:17;5.43;;;2.60;;
69937;SDS011;57248;47.320;15.998;2023-06-14T03:34:49;6.97;;;2.58;;
69937;SDS011;57248;47.320;15.998;2023-06-14T03:37:23;7.90;;;2.58;;
69937;SDS011;57248;47.320;15.998;2023-06-14T03:39:55;7.63;;;2.72;;
69937;SDS011;57248;47.320;15.998;2023-06-14T03:42:30;5.38;;;2.38;;
69937;SDS011;57248;47.320;15.998;2023-06-14T03:45:02;5.43;;;2.57;;
69937;SDS011;57248;47.320;15.998;2023-06-14T03:47:34;5.85;;;2.45;;
69937;SDS011;57248;47.320;15.998;2023-06-14T03:50:20;5.57;;;2.70;;
69937;SDS011;57248;47.320;15.998;2023-06-14T03:52:52;5.40;;;2.63;;
69937;SDS011;57248;47.320;15.998;2023-06-14T03:55:26;5.57;;;2.25;;
69937;SDS011;57248;47.320;15.998;2023-06-14T03:57:59;5.27;;;2.43;;
69937;SDS011;57248;47.320;15.998;2023-06-14T04:00:31;6.13;;;2.80;;
69937;SDS011;57248;47.320;15.998;2023-06-14T04:03:03;5.53;;;2.65;;
69937;SDS011;57248;47.320;15.998;2023-06-14T04:05:30;7.05;;;2.97;;
69937;SDS011;57248;47.320;15.998;2023-06-14T04:08:03;6.03;;;2.80;;
69937;SDS011;57248;47.320;15.998;2023-06-14T04:10:36;6.13;;;2.90;;
69937;SDS011;57248;47.320;15.998;2023-06-14T04:13:08;5.93;;;2.30;;
69937;SDS011;57248;47.320;15.998;2023-06-14T04:15:37;5.35;;;2.17;;
69937;SDS011;57248;47.320;15.998;2023-06-14T04:18:19;6.32;;;2.35;;
69937;SDS011;57248;47.320;15.998;2023-06-14T04:20:52;8.25;;;3.13;;
69937;SDS011;57248;47.320;15.998;2023-06-14T04:23:25;6.30;;;3.10;;
69937;SDS011;57248;47.320;15.998;2023-06-14T04:26:02;7.03;;;2.70;;
69937;SDS011;57248;47.320;15.998;2023-06-14T04:28:35;5.15;;;2.60;;
69937;SDS011;57248;47.320;15.998;2023-06-14T04:31:12;7.47;;;3.20;;
69937;SDS011;57248;47.320;15.998;2023-06-14T04:33:44;5.97;;;2.67;;
69937;SDS011;57248;47.320;15.998;2023-06-14T04:36:20;6.87;;;2.70;;
69937;SDS011;57248;47.320;15.998;2023-06-14T04:38:54;7.85;;;2.60;;
69937;SDS011;57248;47.320;15.998;2023-06-14T04:41:27;6.40;;;2.60;;
69937;SDS011;57248;47.320;15.998;2023-06-14T04:44:02;6.18;;;2.95;;
69937;SDS011;57248;47.320;15.998;2023-06-14T04:46:39;7.63;;;3.20;;
69937;SDS011;57248;47.320;15.998;2023-06-14T04:49:21;5.40;;;2.57;;
69937;SDS011;57248;47.320;15.998;2023-06-14T04:52:04;5.70;;;2.80;;
69937;SDS011;57248;47.320;15.998;2023-06-14T04:54:39;5.68;;;2.78;;
69937;SDS011;57248;47.320;15.998;2023-06-14T04:57:17;7.75;;;2.88;;
69937;SDS011;57248;47.320;15.998;2023-06-14T04:59:51;6.85;;;2.80;;
69937;SDS011;57248;47.320;15.998;2023-06-14T05:02:29;5.20;;;2.73;;
69937;SDS011;57248;47.320;15.998;2023-06-14T05:05:02;5.50;;;2.80;;
69937;SDS011;57248;47.320;15.998;2023-06-14T05:07:34;6.88;;;3.05;;
69937;SDS011;57248;47.320;15.998;2023-06-14T05:10:06;5.90;;;3.10;;
69937;SDS011;57248;47.320;15.998;2023-06-14T05:12:32;9.10;;;3.40;;
69937;SDS011;57248;47.320;15.998;2023-06-14T05:15:07;7.93;;;3.40;;
69937;SDS011;57248;47.320;15.998;2023-06-14T05:17:40;6.30;;;2.65;;
69937;SDS011;57248;47.320;15.998;2023-06-14T05:20:06;5.63;;;2.50;;
69937;SDS011;57248;47.320;15.998;2023-06-14T05:22:39;6.35;;;3.00;;
69937;SDS011;57248;47.320;15.998;2023-06-14T05:25:12;5.72;;;2.80;;
69937;SDS011;57248;47.320;15.998;2023-06-14T05:27:44;6.37;;;2.87;;
69937;SDS011;57248;47.320;15.998;2023-06-14T05:30:17;7.05;;;3.47;;
69937;SDS011;57248;47.320;15.998;2023-06-14T05:32:49;7.38;;;3.25;;
69937;SDS011;57248;47.320;15.998;2023-06-14T05:35:22;5.30;;;3.08;;
69937;SDS011;57248;47.320;15.998;2023-06-14T05:37:55;6.88;;;3.10;;
69937;SDS011;57248;47.320;15.998;2023-06-14T05:40:28;7.10;;;2.83;;
69937;SDS011;57248;47.320;15.998;2023-06-14T05:43:00;7.85;;;3.30;;
69937;SDS011;57248;47.320;15.998;2023-06-14T05:45:32;7.13;;;2.65;;
69937;SDS011;57248;47.320;15.998;2023-06-14T05:48:04;6.32;;;3.28;;
69937;SDS011;57248;47.320;15.998;2023-06-14T05:50:36;8.43;;;3.20;;
69937;SDS011;57248;47.320;15.998;2023-06-14T05:53:08;7.63;;;3.17;;
69937;SDS011;57248;47.320;15.998;2023-06-14T05:55:40;6.47;;;2.75;;
69937;SDS011;57248;47.320;15.998;2023-06-14T05:58:12;7.95;;;2.90;;
69937;SDS011;57248;47.320;15.998;2023-06-14T06:00:38;5.03;;;2.60;;
69937;SDS011;57248;47.320;15.998;2023-06-14T06:03:11;7.82;;;2.80;;
69937;SDS011;57248;47.320;15.998;2023-06-14T06:05:44;6.63;;;2.80;;
69937;SDS011;57248;47.320;15.998;2023-06-14T06:08:16;6.57;;;2.35;;
69937;SDS011;57248;47.320;15.998;2023-06-14T06:10:48;6.82;;;2.63;;
69937;SDS011;57248;47.320;15.998;2023-06-14T06:13:20;5.53;;;2.30;;
69937;SDS011;57248;47.320;15.998;2023-06-14T06:15:52;4.85;;;2.15;;
69937;SDS011;57248;47.320;15.998;2023-06-14T06:18:24;4.83;;;2.20;;
69937;SDS011;57248;47.320;15.998;2023-06-14T06:20:56;6.13;;;2.30;;
69937;SDS011;57248;47.320;15.998;2023-06-14T06:23:28;4.60;;;2.10;;
69937;SDS011;57248;47.320;15.998;2023-06-14T06:26:00;5.18;;;2.00;;
69937;SDS011;57248;47.320;15.998;2023-06-14T06:28:32;5.85;;;2.25;;
69937;SDS011;57248;47.320;15.998;2023-06-14T06:31:05;5.07;;;2.20;;
69937;SDS011;57248;47.320;15.998;2023-06-14T06:33:37;5.03;;;2.28;;
69937;SDS011;57248;47.320;15.998;2023-06-14T06:36:05;4.45;;;2.03;;
69937;SDS011;57248;47.320;15.998;2023-06-14T06:38:37;5.13;;;2.15;;
69937;SDS011;57248;47.320;15.998;2023-06-14T06:41:09;5.45;;;2.20;;
69937;SDS011;57248;47.320;15.998;2023-06-14T06:43:41;5.90;;;2.50;;
69937;SDS011;57248;47.320;15.998;2023-06-14T06:46:15;4.70;;;2.20;;
69937;SDS011;57248;47.320;15.998;2023-06-14T06:48:49;7.18;;;2.70;;
69937;SDS011;57248;47.320;15.998;2023-06-14T06:51:28;5.55;;;2.30;;
69937;SDS011;57248;47.320;15.998;2023-06-14T06:54:00;11.32;;;3.50;;
69937;SDS011;57248;47.320;15.998;2023-06-14T06:56:34;18.50;;;5.33;;
69937;SDS011;57248;47.320;15.998;2023-06-14T06:59:06;11.63;;;3.38;;
69937;SDS011;57248;47.320;15.998;2023-06-14T07:01:38;8.43;;;2.97;;
69937;SDS011;57248;47.320;15.998;2023-06-14T07:04:10;6.53;;;2.50;;
69937;SDS011;57248;47.320;15.998;2023-06-14T07:06:42;5.38;;;2.50;;
69937;SDS011;57248;47.320;15.998;2023-06-14T07:09:14;5.43;;;2.50;;
69937;SDS011;57248;47.320;15.998;2023-06-14T07:11:48;5.60;;;2.50;;
69937;SDS011;57248;47.320;15.998;2023-06-14T07:14:13;7.27;;;2.20;;
69937;SDS011;57248;47.320;15.998;2023-06-14T07:16:46;6.75;;;2.47;;
69937;SDS011;57248;47.320;15.998;2023-06-14T07:19:18;6.40;;;2.35;;
69937;SDS011;57248;47.320;15.998;2023-06-14T07:21:50;9.50;;;3.25;;
69937;SDS011;57248;47.320;15.998;2023-06-14T07:24:22;9.98;;;3.90;;
69937;SDS011;57248;47.320;15.998;2023-06-14T07:26:55;5.97;;;2.63;;
69937;SDS011;57248;47.320;15.998;2023-06-14T07:29:27;4.82;;;2.20;;
69937;SDS011;57248;47.320;15.998;2023-06-14T07:31:59;5.22;;;2.30;;
69937;SDS011;57248;47.320;15.998;2023-06-14T07:34:31;4.82;;;2.20;;
69937;SDS011;57248;47.320;15.998;2023-06-14T07:37:03;4.30;;;2.13;;
69937;SDS011;57248;47.320;15.998;2023-06-14T07:39:35;4.23;;;2.20;;
69937;SDS011;57248;47.320;15.998;2023-06-14T07:42:07;5.60;;;2.40;;
69937;SDS011;57248;47.320;15.998;2023-06-14T07:44:39;6.40;;;2.92;;
69937;SDS011;57248;47.320;15.998;2023-06-14T07:47:11;6.05;;;2.67;;
69937;SDS011;57248;47.320;15.998;2023-06-14T07:49:57;5.43;;;2.58;;
69937;SDS011;57248;47.320;15.998;2023-06-14T07:52:29;5.27;;;2.50;;
69937;SDS011;57248;47.320;15.998;2023-06-14T07:55:02;4.68;;;2.65;;
69937;SDS011;57248;47.320;15.998;2023-06-14T07:57:34;4.72;;;2.33;;
69937;SDS011;57248;47.320;15.998;2023-06-14T08:00:06;5.38;;;2.28;;
69937;SDS011;57248;47.320;15.998;2023-06-14T08:02:39;5.03;;;2.40;;
69937;SDS011;57248;47.320;15.998;2023-06-14T08:05:11;5.37;;;2.50;;
69937;SDS011;57248;47.320;15.998;2023-06-14T08:07:43;5.72;;;2.50;;
69937;SDS011;57248;47.320;15.998;2023-06-14T08:10:15;6.35;;;3.03;;
69937;SDS011;57248;47.320;15.998;2023-06-14T08:12:47;4.70;;;2.22;;
69937;SDS011;57248;47.320;15.998;2023-06-14T08:15:21;7.60;;;2.50;;
69937;SDS011;57248;47.320;15.998;2023-06-14T08:17:53;5.97;;;2.40;;
69937;SDS011;57248;47.320;15.998;2023-06-14T08:20:25;5.85;;;2.30;;
69937;SDS011;57248;47.320;15.998;2023-06-14T08:22:57;5.93;;;2.20;;
69937;SDS011;57248;47.320;15.998;2023-06-14T08:25:29;5.25;;;2.72;;
69937;SDS011;57248;47.320;15.998;2023-06-14T08:27:56;5.43;;;2.60;;
69937;SDS011;57248;47.320;15.998;2023-06-14T08:30:27;4.70;;;2.30;;
69937;SDS011;57248;47.320;15.998;2023-06-14T08:32:59;6.03;;;2.40;;
69937;SDS011;57248;47.320;15.998;2023-06-14T08:35:31;6.78;;;2.42;;
69937;SDS011;57248;47.320;15.998;2023-06-14T08:38:05;5.13;;;2.03;;
69937;SDS011;57248;47.320;15.998;2023-06-14T08:40:36;9.25;;;7.95;;
69937;SDS011;57248;47.320;15.998;2023-06-14T08:43:09;6.33;;;3.77;;
69937;SDS011;57248;47.320;15.998;2023-06-14T08:45:41;7.22;;;3.17;;
69937;SDS011;57248;47.320;15.998;2023-06-14T08:48:07;5.43;;;2.83;;
69937;SDS011;57248;47.320;15.998;2023-06-14T08:50:39;5.50;;;2.00;;
69937;SDS011;57248;47.320;15.998;2023-06-14T08:53:20;7.03;;;2.40;;
69937;SDS011;57248;47.320;15.998;2023-06-14T08:55:54;6.75;;;2.25;;
69937;SDS011;57248;47.320;15.998;2023-06-14T08:58:28;5.72;;;2.47;;
69937;SDS011;57248;47.320;15.998;2023-06-14T09:01:05;5.68;;;2.58;;
69937;SDS011;57248;47.320;15.998;2023-06-14T09:03:40;6.47;;;2.57;;
69937;SDS011;57248;47.320;15.998;2023-06-14T09:06:13;5.47;;;2.55;;
69937;SDS011;57248;47.320;15.998;2023-06-14T09:08:46;7.00;;;2.63;;
69937;SDS011;57248;47.320;15.998;2023-06-14T09:11:14;7.65;;;2.70;;
69937;SDS011;57248;47.320;15.998;2023-06-14T09:13:50;7.03;;;2.72;;
69937;SDS011;57248;47.320;15.998;2023-06-14T09:16:22;7.20;;;2.83;;
69937;SDS011;57248;47.320;15.998;2023-06-14T09:18:54;6.50;;;2.70;;
69937;SDS011;57248;47.320;15.998;2023-06-14T09:21:20;4.72;;;2.15;;
69937;SDS011;57248;47.320;15.998;2023-06-14T09:23:53;4.57;;;2.22;;
69937;SDS011;57248;47.320;15.998;2023-06-14T09:26:27;5.97;;;2.30;;
69937;SDS011;57248;47.320;15.998;2023-06-14T09:29:00;5.47;;;2.92;;
69937;SDS011;57248;47.320;15.998;2023-06-14T09:31:32;5.60;;;2.95;;
69937;SDS011;57248;47.320;15.998;2023-06-14T09:34:04;5.60;;;2.80;;
69937;SDS011;57248;47.320;15.998;2023-06-14T09:36:38;6.95;;;2.78;;
69937;SDS011;57248;47.320;15.998;2023-06-14T09:39:11;5.87;;;2.77;;
69937;SDS011;57248;47.320;15.998;2023-06-14T09:41:50;6.75;;;2.88;;
69937;SDS011;57248;47.320;15.998;2023-06-14T09:44:22;6.47;;;2.72;;
69937;SDS011;57248;47.320;15.998;2023-06-14T09:47:00;6.45;;;2.92;;
69937;SDS011;57248;47.320;15.998;2023-06-14T09:49:41;7.93;;;2.90;;
69937;SDS011;57248;47.320;15.998;2023-06-14T09:52:16;5.63;;;2.53;;
69937;SDS011;57248;47.320;15.998;2023-06-14T09:54:58;5.70;;;2.50;;
69937;SDS011;57248;47.320;15.998;2023-06-14T09:57:25;6.57;;;2.80;;
69937;SDS011;57248;47.320;15.998;2023-06-14T10:00:00;5.43;;;2.45;;
69937;SDS011;57248;47.320;15.998;2023-06-14T10:02:38;6.38;;;2.55;;
69937;SDS011;57248;47.320;15.998;2023-06-14T10:05:15;6.67;;;2.10;;
69937;SDS011;57248;47.320;15.998;2023-06-14T10:07:53;5.72;;;2.70;;
69937;SDS011;57248;47.320;15.998;2023-06-14T10:10:31;25.90;;;14.00;;
69937;SDS011;57248;47.320;15.998;2023-06-14T10:13:03;8.88;;;4.32;;
69937;SDS011;57248;47.320;15.998;2023-06-14T10:21:33;5.53;;;4.97;;
69937;SDS011;57248;47.320;15.998;2023-06-14T10:24:13;5.95;;;5.35;;
69937;SDS011;57248;47.320;15.998;2023-06-14T10:26:50;7.88;;;6.88;;
69937;SDS011;57248;47.320;15.998;2023-06-14T10:29:23;10.05;;;9.25;;
69937;SDS011;57248;47.320;15.998;2023-06-14T10:31:56;6.43;;;5.40;;
69937;SDS011;57248;47.320;15.998;2023-06-14T10:34:30;5.10;;;4.55;;
69937;SDS011;57248;47.320;15.998;2023-06-14T10:37:06;5.80;;;5.20;;
69937;SDS011;57248;47.320;15.998;2023-06-14T10:39:43;5.28;;;4.78;;
69937;SDS011;57248;47.320;15.998;2023-06-14T10:42:17;5.10;;;3.75;;
69937;SDS011;57248;47.320;15.998;2023-06-14T10:44:51;4.83;;;2.90;;
69937;SDS011;57248;47.320;15.998;2023-06-14T10:47:33;6.80;;;3.42;;
69937;SDS011;57248;47.320;15.998;2023-06-14T10:50:14;4.60;;;3.00;;
69937;SDS011;57248;47.320;15.998;2023-06-14T10:52:47;5.88;;;3.60;;
69937;SDS011;57248;47.320;15.998;2023-06-14T10:55:19;4.82;;;3.20;;
69937;SDS011;57248;47.320;15.998;2023-06-14T10:57:54;4.43;;;3.30;;
69937;SDS011;57248;47.320;15.998;2023-06-14T11:00:31;4.22;;;3.00;;
69937;SDS011;57248;47.320;15.998;2023-06-14T11:06:17;5.22;;;2.50;;
69937;SDS011;57248;47.320;15.998;2023-06-14T11:09:09;5.28;;;2.60;;
69937;SDS011;57248;47.320;15.998;2023-06-14T11:11:54;4.00;;;2.40;;
69937;SDS011;57248;47.320;15.998;2023-06-14T11:14:29;3.97;;;2.45;;
69937;SDS011;57248;47.320;15.998;2023-06-14T11:17:02;4.97;;;2.70;;
69937;SDS011;57248;47.320;15.998;2023-06-14T11:19:28;4.15;;;2.72;;
69937;SDS011;57248;47.320;15.998;2023-06-14T11:22:01;6.27;;;2.70;;
69937;SDS011;57248;47.320;15.998;2023-06-14T11:24:33;5.53;;;2.60;;
69937;SDS011;57248;47.320;15.998;2023-06-14T11:27:06;3.80;;;2.53;;
69937;SDS011;57248;47.320;15.998;2023-06-14T11:29:48;5.72;;;2.95;;
69937;SDS011;57248;47.320;15.998;2023-06-14T11:32:21;5.30;;;3.45;;
69937;SDS011;57248;47.320;15.998;2023-06-14T11:34:53;5.13;;;3.03;;
69937;SDS011;57248;47.320;15.998;2023-06-14T11:37:26;6.00;;;2.83;;
69937;SDS011;57248;47.320;15.998;2023-06-14T11:40:00;4.88;;;3.08;;
69937;SDS011;57248;47.320;15.998;2023-06-14T11:42:33;7.35;;;3.05;;
69937;SDS011;57248;47.320;15.998;2023-06-14T11:45:08;4.80;;;3.10;;
69937;SDS011;57248;47.320;15.998;2023-06-14T11:47:57;4.70;;;2.70;;
69937;SDS011;57248;47.320;15.998;2023-06-14T11:50:37;6.05;;;2.80;;
69937;SDS011;57248;47.320;15.998;2023-06-14T11:53:10;5.38;;;3.50;;
69937;SDS011;57248;47.320;15.998;2023-06-14T11:55:42;4.22;;;3.00;;
69937;SDS011;57248;47.320;15.998;2023-06-14T11:58:16;5.22;;;3.60;;
69937;SDS011;57248;47.320;15.998;2023-06-14T12:00:50;4.30;;;2.93;;
69937;SDS011;57248;47.320;15.998;2023-06-14T12:03:23;4.75;;;3.20;;
69937;SDS011;57248;47.320;15.998;2023-06-14T12:06:05;4.30;;;2.80;;
69937;SDS011;57248;47.320;15.998;2023-06-14T12:08:39;4.43;;;2.70;;
69937;SDS011;57248;47.320;15.998;2023-06-14T12:11:13;5.88;;;2.25;;
69937;SDS011;57248;47.320;15.998;2023-06-14T12:13:45;4.47;;;2.30;;
69937;SDS011;57248;47.320;15.998;2023-06-14T12:16:17;5.70;;;2.05;;
69937;SDS011;57248;47.320;15.998;2023-06-14T12:18:49;5.03;;;2.80;;
69937;SDS011;57248;47.320;15.998;2023-06-14T12:21:22;3.78;;;2.08;;
69937;SDS011;57248;47.320;15.998;2023-06-14T12:23:54;4.80;;;2.50;;
69937;SDS011;57248;47.320;15.998;2023-06-14T12:26:26;5.10;;;2.33;;
69937;SDS011;57248;47.320;15.998;2023-06-14T12:28:59;3.60;;;2.15;;
69937;SDS011;57248;47.320;15.998;2023-06-14T12:31:32;4.50;;;2.42;;
69937;SDS011;57248;47.320;15.998;2023-06-14T12:34:04;4.40;;;2.40;;
69937;SDS011;57248;47.320;15.998;2023-06-14T12:36:36;4.20;;;2.60;;
69937;SDS011;57248;47.320;15.998;2023-06-14T12:39:16;6.83;;;3.10;;
69937;SDS011;57248;47.320;15.998;2023-06-14T12:41:49;5.18;;;3.00;;
69937;SDS011;57248;47.320;15.998;2023-06-14T12:44:23;5.75;;;3.08;;
69937;SDS011;57248;47.320;15.998;2023-06-14T12:46:55;4.95;;;3.10;;
69937;SDS011;57248;47.320;15.998;2023-06-14T12:49:34;5.78;;;2.92;;
69937;SDS011;57248;47.320;15.998;2023-06-14T12:52:06;4.33;;;2.90;;
69937;SDS011;57248;47.320;15.998;2023-06-14T12:54:39;4.82;;;2.95;;
69937;SDS011;57248;47.320;15.998;2023-06-14T12:57:13;5.25;;;3.17;;
69937;SDS011;57248;47.320;15.998;2023-06-14T12:59:45;6.03;;;3.15;;
69937;SDS011;57248;47.320;15.998;2023-06-14T13:02:17;6.38;;;3.55;;
69937;SDS011;57248;47.320;15.998;2023-06-14T13:04:53;4.47;;;3.00;;
69937;SDS011;57248;47.320;15.998;2023-06-14T13:07:25;5.63;;;4.18;;
69937;SDS011;57248;47.320;15.998;2023-06-14T13:09:57;4.85;;;3.78;;
69937;SDS011;57248;47.320;15.998;2023-06-14T13:12:23;6.07;;;4.30;;
69937;SDS011;57248;47.320;15.998;2023-06-14T13:14:55;5.90;;;4.85;;
69937;SDS011;57248;47.320;15.998;2023-06-14T13:17:27;7.75;;;6.95;;
69937;SDS011;57248;47.320;15.998;2023-06-14T13:20:00;8.25;;;7.45;;
69937;SDS011;57248;47.320;15.998;2023-06-14T13:22:33;9.38;;;8.57;;
69937;SDS011;57248;47.320;15.998;2023-06-14T13:25:06;9.63;;;8.93;;
69937;SDS011;57248;47.320;15.998;2023-06-14T13:27:39;10.07;;;9.20;;
69937;SDS011;57248;47.320;15.998;2023-06-14T13:30:11;9.90;;;9.00;;
69937;SDS011;57248;47.320;15.998;2023-06-14T13:32:44;7.47;;;6.80;;
69937;SDS011;57248;47.320;15.998;2023-06-14T13:35:16;9.65;;;8.73;;
69937;SDS011;57248;47.320;15.998;2023-06-14T13:37:48;8.60;;;7.83;;
69937;SDS011;57248;47.320;15.998;2023-06-14T13:40:20;7.95;;;7.35;;
69937;SDS011;57248;47.320;15.998;2023-06-14T13:42:53;8.52;;;7.72;;
69937;SDS011;57248;47.320;15.998;2023-06-14T13:45:25;8.02;;;7.40;;
69937;SDS011;57248;47.320;15.998;2023-06-14T13:47:58;8.27;;;7.47;;
69937;SDS011;57248;47.320;15.998;2023-06-14T13:50:30;8.80;;;7.27;;
69937;SDS011;57248;47.320;15.998;2023-06-14T13:53:03;7.72;;;7.03;;
69937;SDS011;57248;47.320;15.998;2023-06-14T13:55:35;7.20;;;6.50;;
69937;SDS011;57248;47.320;15.998;2023-06-14T13:58:07;7.40;;;6.50;;
69937;SDS011;57248;47.320;15.998;2023-06-14T14:00:40;6.82;;;6.13;;
69937;SDS011;57248;47.320;15.998;2023-06-14T14:03:13;8.77;;;6.10;;
69937;SDS011;57248;47.320;15.998;2023-06-14T14:05:45;8.05;;;6.25;;
69937;SDS011;57248;47.320;15.998;2023-06-14T14:08:18;8.07;;;7.35;;
69937;SDS011;57248;47.320;15.998;2023-06-14T14:10:50;7.65;;;7.05;;
69937;SDS011;57248;47.320;15.998;2023-06-14T14:13:22;11.38;;;9.88;;
69937;SDS011;57248;47.320;15.998;2023-06-14T14:15:54;14.17;;;11.03;;
69937;SDS011;57248;47.320;15.998;2023-06-14T14:18:26;9.00;;;6.50;;
69937;SDS011;57248;47.320;15.998;2023-06-14T14:20:58;7.70;;;5.35;;
69937;SDS011;57248;47.320;15.998;2023-06-14T14:23:32;5.85;;;4.47;;
69937;SDS011;57248;47.320;15.998;2023-06-14T14:26:04;5.30;;;4.03;;
69937;SDS011;57248;47.320;15.998;2023-06-14T14:28:36;6.90;;;4.03;;
69937;SDS011;57248;47.320;15.998;2023-06-14T14:31:09;6.25;;;4.60;;
69937;SDS011;57248;47.320;15.998;2023-06-14T14:33:41;8.25;;;5.40;;
69937;SDS011;57248;47.320;15.998;2023-06-14T14:36:15;5.90;;;3.72;;
69937;SDS011;57248;47.320;15.998;2023-06-14T14:38:46;4.80;;;3.20;;
69937;SDS011;57248;47.320;15.998;2023-06-14T14:41:18;10.13;;;6.50;;
69937;SDS011;57248;47.320;15.998;2023-06-14T14:43:50;5.38;;;3.38;;
69937;SDS011;57248;47.320;15.998;2023-06-14T14:46:22;5.43;;;2.97;;
69937;SDS011;57248;47.320;15.998;2023-06-14T14:48:50;6.63;;;4.07;;
69937;SDS011;57248;47.320;15.998;2023-06-14T14:51:21;5.20;;;2.97;;
69937;SDS011;57248;47.320;15.998;2023-06-14T14:54:01;6.50;;;3.67;;
69937;SDS011;57248;47.320;15.998;2023-06-14T14:56:34;8.45;;;3.50;;
69937;SDS011;57248;47.320;15.998;2023-06-14T14:59:07;6.80;;;2.95;;
69937;SDS011;57248;47.320;15.998;2023-06-14T15:01:33;5.57;;;2.50;;
69937;SDS011;57248;47.320;15.998;2023-06-14T15:04:05;5.50;;;2.97;;
69937;SDS011;57248;47.320;15.998;2023-06-14T15:06:37;5.32;;;3.28;;
69937;SDS011;57248;47.320;15.998;2023-06-14T15:09:11;5.15;;;4.03;;
69937;SDS011;57248;47.320;15.998;2023-06-14T15:11:44;5.23;;;4.37;;
69937;SDS011;57248;47.320;15.998;2023-06-14T15:14:16;6.10;;;4.63;;
69937;SDS011;57248;47.320;15.998;2023-06-14T15:16:49;7.80;;;4.90;;